createdAt,value
2022-10-18T00:00:00.680Z,85.56
2022-10-18T00:01:00.680Z,85.86
2022-10-18T00:02:00.730Z,85.46
2022-10-18T00:03:00.648Z,84.65
2022-10-18T00:04:00.638Z,84.75
2022-10-18T00:05:00.633Z,84.65
2022-10-18T00:06:00.635Z,84.95
2022-10-18T00:07:00.627Z,84.95
2022-10-18T00:08:00.653Z,84.65
2022-10-18T00:09:00.638Z,85.16
2022-10-18T00:10:00.717Z,84.81
2022-10-18T00:11:00.670Z,84.61
2022-10-18T00:12:00.637Z,84.51
2022-10-18T00:13:00.599Z,85.02
2022-10-18T00:14:00.628Z,85.02
2022-10-18T00:15:00.629Z,84.01
2022-10-18T00:16:00.599Z,84.71
2022-10-18T00:17:00.617Z,84.61
2022-10-18T00:18:00.581Z,83.91
2022-10-18T00:19:00.564Z,83.91
2022-10-18T00:20:00.544Z,83.80
2022-10-18T00:21:00.506Z,84.11
2022-10-18T00:22:00.514Z,84.11
2022-10-18T00:23:00.585Z,83.91
2022-10-18T00:24:00.522Z,83.91
2022-10-18T00:25:00.514Z,83.91
2022-10-18T00:26:00.492Z,83.91
2022-10-18T00:27:00.540Z,83.91
2022-10-18T00:28:00.461Z,83.70
2022-10-18T00:29:00.550Z,84.21
2022-10-18T00:30:00.471Z,83.80
2022-10-18T00:31:00.595Z,84.21
2022-10-18T00:32:00.472Z,83.70
2022-10-18T00:33:00.430Z,84.81
2022-10-18T00:34:00.439Z,85.05
2022-10-18T00:35:00.480Z,85.46
2022-10-18T00:36:00.408Z,85.02
2022-10-18T00:37:00.406Z,85.22
2022-10-18T00:38:00.439Z,85.02
2022-10-18T00:39:00.488Z,84.71
2022-10-18T00:40:00.455Z,84.71
2022-10-18T00:41:00.401Z,85.11
2022-10-18T00:42:05.606Z,85.02
2022-10-18T00:43:00.367Z,85.11
2022-10-18T00:44:00.359Z,85.22
2022-10-18T00:45:00.367Z,85.31
2022-10-18T00:46:00.336Z,85.52
2022-10-18T00:47:00.334Z,85.25
2022-10-18T00:48:00.320Z,85.62
2022-10-18T00:49:00.360Z,86.13
2022-10-18T00:50:00.323Z,85.86
2022-10-18T00:51:00.305Z,87.18
2022-10-18T00:52:00.301Z,87.07
2022-10-18T00:53:00.725Z,88.28
2022-10-18T00:54:00.290Z,88.08
2022-10-18T00:55:00.295Z,88.53
2022-10-18T00:56:00.549Z,88.28
2022-10-18T00:57:00.277Z,88.32
2022-10-18T00:58:00.265Z,88.93
2022-10-18T00:59:00.253Z,88.53
2022-10-18T01:00:00.281Z,88.99
2022-10-18T01:01:00.267Z,88.43
2022-10-18T01:02:00.340Z,89.03
2022-10-18T01:03:00.243Z,89.13
2022-10-18T01:04:00.221Z,89.09
2022-10-18T01:05:00.205Z,89.03
2022-10-18T01:06:00.205Z,88.99
2022-10-18T01:07:00.260Z,88.89
2022-10-18T01:08:00.198Z,89.19
2022-10-18T01:09:00.188Z,89.09
2022-10-18T01:10:00.167Z,88.59
2022-10-18T01:11:00.177Z,88.68
2022-10-18T01:12:00.197Z,89.19
2022-10-18T01:13:00.691Z,88.73
2022-10-18T01:14:00.147Z,88.48
2022-10-18T01:15:00.144Z,88.68
2022-10-18T01:16:00.201Z,88.18
2022-10-18T01:17:00.120Z,89.19
2022-10-18T01:18:00.106Z,88.68
2022-10-18T01:19:00.657Z,88.79
2022-10-18T01:20:00.125Z,89.29
2022-10-18T01:21:00.090Z,88.99
2022-10-18T01:22:00.085Z,88.28
2022-10-18T01:23:00.114Z,88.39
2022-10-18T01:24:00.088Z,88.59
2022-10-18T01:25:00.200Z,88.48
2022-10-18T01:26:00.055Z,88.48
2022-10-18T01:27:00.046Z,88.39
2022-10-18T01:28:00.079Z,88.28
2022-10-18T01:29:00.114Z,88.08
2022-10-18T01:30:00.025Z,88.39
2022-10-18T01:31:00.453Z,88.68
2022-10-18T01:32:00.014Z,88.59
2022-10-18T01:33:00.014Z,89.29
2022-10-18T01:34:00.020Z,89.64
2022-10-18T01:35:00.005Z,89.84
2022-10-18T01:35:59.995Z,89.84
2022-10-18T01:36:59.971Z,89.43
2022-10-18T01:37:59.975Z,89.74
2022-10-18T01:38:59.966Z,89.74
2022-10-18T01:40:00.334Z,89.78
2022-10-18T01:41:00.848Z,89.88
2022-10-18T01:41:59.953Z,90.79
2022-10-18T01:42:59.982Z,90.39
2022-10-18T01:44:00.001Z,89.88
2022-10-18T01:44:59.919Z,90.28
2022-10-18T01:45:59.907Z,89.68
2022-10-18T01:46:59.923Z,89.48
2022-10-18T01:47:59.904Z,90.79
2022-10-18T01:48:59.911Z,89.98
2022-10-18T01:49:59.886Z,90.63
2022-10-18T01:50:59.882Z,90.43
2022-10-18T01:51:59.975Z,90.23
2022-10-18T01:52:59.867Z,90.53
2022-10-18T01:53:59.854Z,90.43
2022-10-18T01:55:00.788Z,90.63
2022-10-18T01:55:59.852Z,90.73
2022-10-18T01:56:59.841Z,90.88
2022-10-18T01:57:59.829Z,90.47
2022-10-18T01:58:59.819Z,90.47
2022-10-18T01:59:59.846Z,89.97
2022-10-18T02:00:59.881Z,89.76
2022-10-18T02:01:59.941Z,89.97
2022-10-18T02:02:59.801Z,89.36
2022-10-18T02:03:59.782Z,89.87
2022-10-18T02:04:59.783Z,89.56
2022-10-18T02:05:59.856Z,89.46
2022-10-18T02:06:59.770Z,89.36
2022-10-18T02:08:19.024Z,89.36
2022-10-18T02:09:00.744Z,89.46
2022-10-18T02:09:59.786Z,89.36
2022-10-18T02:10:59.768Z,89.16
2022-10-18T02:11:59.775Z,88.75
2022-10-18T02:12:59.766Z,88.85
2022-10-18T02:13:59.726Z,88.92
2022-10-18T02:14:59.711Z,88.75
2022-10-18T02:15:59.750Z,88.96
2022-10-18T02:16:59.716Z,88.96
2022-10-18T02:17:59.702Z,88.55
2022-10-18T02:18:59.705Z,88.31
2022-10-18T02:19:59.691Z,88.55
2022-10-18T02:20:59.678Z,88.35
2022-10-18T02:21:59.738Z,88.21
2022-10-18T02:23:00.385Z,88.65
2022-10-18T02:23:59.699Z,88.41
2022-10-18T02:24:59.839Z,88.25
2022-10-18T02:25:59.645Z,88.51
2022-10-18T02:26:59.639Z,88.65
2022-10-18T02:27:59.636Z,89.26
2022-10-18T02:28:59.621Z,88.96
2022-10-18T02:30:00.085Z,88.96
2022-10-18T02:30:59.599Z,89.06
2022-10-18T02:31:59.614Z,89.46
2022-10-18T02:32:59.594Z,89.56
2022-10-18T02:33:59.580Z,89.46
2022-10-18T02:34:59.569Z,89.56
2022-10-18T02:35:59.608Z,89.56
2022-10-18T02:36:59.588Z,89.36
2022-10-18T02:37:59.556Z,89.97
2022-10-18T02:38:59.550Z,89.76
2022-10-18T02:39:59.542Z,90.41
2022-10-18T02:40:59.552Z,90.78
2022-10-18T02:41:59.530Z,90.82
2022-10-18T02:42:59.511Z,90.72
2022-10-18T02:43:59.515Z,91.32
2022-10-18T02:44:59.510Z,91.28
2022-10-18T02:45:59.494Z,90.52
2022-10-18T02:46:59.509Z,92.03
2022-10-18T02:47:59.509Z,91.32
2022-10-18T02:48:59.475Z,91.42
2022-10-18T02:50:00.906Z,91.02
2022-10-18T02:50:59.477Z,91.83
2022-10-18T02:51:59.452Z,91.22
2022-10-18T02:52:59.453Z,91.02
2022-10-18T02:53:59.441Z,91.83
2022-10-18T02:55:00.393Z,91.08
2022-10-18T02:55:59.433Z,90.47
2022-10-18T02:56:59.414Z,90.47
2022-10-18T02:57:59.421Z,90.58
2022-10-18T02:58:59.415Z,90.47
2022-10-18T02:59:59.413Z,90.67
2022-10-18T03:00:59.409Z,90.88
2022-10-18T03:01:59.409Z,90.67
2022-10-18T03:02:59.382Z,90.37
2022-10-18T03:03:59.396Z,90.33
2022-10-18T03:04:59.376Z,89.52
2022-10-18T03:05:59.366Z,90.33
2022-10-18T03:06:59.370Z,89.76
2022-10-18T03:07:59.350Z,89.56
2022-10-18T03:08:59.335Z,89.72
2022-10-18T03:09:59.338Z,89.62
2022-10-18T03:10:59.343Z,89.52
2022-10-18T03:11:59.394Z,90.23
2022-10-18T03:12:59.323Z,89.92
2022-10-18T03:13:59.310Z,89.52
2022-10-18T03:14:59.301Z,89.37
2022-10-18T03:15:59.316Z,89.72
2022-10-18T03:16:59.298Z,89.92
2022-10-18T03:17:59.282Z,89.62
2022-10-18T03:18:59.279Z,89.42
2022-10-18T03:19:59.311Z,90.03
2022-10-18T03:20:59.261Z,89.83
2022-10-18T03:21:59.313Z,89.92
2022-10-18T03:22:59.331Z,89.62
2022-10-18T03:23:59.257Z,89.62
2022-10-18T03:24:59.673Z,89.83
2022-10-18T03:25:59.237Z,89.52
2022-10-18T03:26:59.227Z,89.72
2022-10-18T03:27:59.232Z,89.32
2022-10-18T03:28:59.248Z,89.22
2022-10-18T03:29:59.208Z,89.52
2022-10-18T03:30:59.202Z,89.32
2022-10-18T03:31:59.195Z,89.22
2022-10-18T03:32:59.201Z,89.22
2022-10-18T03:33:59.182Z,89.12
2022-10-18T03:34:59.170Z,89.22
2022-10-18T03:35:59.191Z,89.01
2022-10-18T03:37:02.093Z,88.61
2022-10-18T03:38:00.924Z,88.41
2022-10-18T03:38:59.147Z,88.51
2022-10-18T03:39:59.130Z,88.71
2022-10-18T03:40:59.133Z,88.71
2022-10-18T03:41:59.138Z,88.92
2022-10-18T03:42:59.109Z,88.51
2022-10-18T03:43:59.113Z,88.71
2022-10-18T03:44:59.103Z,88.61
2022-10-18T03:45:59.090Z,88.61
2022-10-18T03:46:59.089Z,88.61
2022-10-18T03:47:59.099Z,88.71
2022-10-18T03:48:59.104Z,88.71
2022-10-18T03:49:59.063Z,88.61
2022-10-18T03:50:59.062Z,88.61
2022-10-18T03:51:59.078Z,88.26
2022-10-18T03:52:59.042Z,88.21
2022-10-18T03:53:59.039Z,88.81
2022-10-18T03:54:59.056Z,88.57
2022-10-18T03:55:59.037Z,88.81
2022-10-18T03:56:59.023Z,88.47
2022-10-18T03:57:59.006Z,88.71
2022-10-18T03:58:59.006Z,88.47
2022-10-18T03:59:59.013Z,88.57
2022-10-18T04:00:58.981Z,88.51
2022-10-18T04:01:59.066Z,88.61
2022-10-18T04:02:58.984Z,88.51
2022-10-18T04:03:58.961Z,88.31
2022-10-18T04:04:58.957Z,88.67
2022-10-18T04:05:59.656Z,88.71
2022-10-18T04:06:59.469Z,88.61
2022-10-18T04:07:59.002Z,88.92
2022-10-18T04:08:58.939Z,89.01
2022-10-18T04:09:58.923Z,88.81
2022-10-18T04:10:58.913Z,89.01
2022-10-18T04:11:58.915Z,89.12
2022-10-18T04:12:58.916Z,89.22
2022-10-18T04:13:58.936Z,88.81
2022-10-18T04:14:58.890Z,89.72
2022-10-18T04:15:58.897Z,89.72
2022-10-18T04:16:58.883Z,90.12
2022-10-18T04:17:58.886Z,89.83
2022-10-18T04:18:58.863Z,89.92
2022-10-18T04:19:58.856Z,89.92
2022-10-18T04:20:58.842Z,89.83
2022-10-18T04:21:58.843Z,89.52
2022-10-18T04:22:58.844Z,89.42
2022-10-18T04:23:59.594Z,89.62
2022-10-18T04:24:58.816Z,90.12
2022-10-18T04:25:58.805Z,89.97
2022-10-18T04:26:58.805Z,89.97
2022-10-18T04:27:58.806Z,89.66
2022-10-18T04:28:58.871Z,89.46
2022-10-18T04:29:58.798Z,90.11
2022-10-18T04:30:58.784Z,90.11
2022-10-18T04:32:06.490Z,90.21
2022-10-18T04:32:58.757Z,90.52
2022-10-18T04:33:58.768Z,90.72
2022-10-18T04:34:59.176Z,91.87
2022-10-18T04:35:58.734Z,91.73
2022-10-18T04:36:58.733Z,91.63
2022-10-18T04:37:58.729Z,91.63
2022-10-18T04:38:58.716Z,91.77
2022-10-18T04:39:58.987Z,91.67
2022-10-18T04:40:58.704Z,92.03
2022-10-18T04:41:58.689Z,91.53
2022-10-18T04:42:58.690Z,91.22
2022-10-18T04:43:58.679Z,92.44
2022-10-18T04:44:58.675Z,91.73
2022-10-18T04:45:58.686Z,90.45
2022-10-18T04:46:58.659Z,90.66
2022-10-18T04:47:58.656Z,92.68
2022-10-18T04:48:58.652Z,92.68
2022-10-18T04:49:58.631Z,92.99
2022-10-18T04:50:58.645Z,93.63
2022-10-18T04:51:58.642Z,93.90
2022-10-18T04:52:58.623Z,93.70
2022-10-18T04:53:58.612Z,93.29
2022-10-18T04:54:58.608Z,94.10
2022-10-18T04:55:58.668Z,93.65
2022-10-18T04:56:58.605Z,93.29
2022-10-18T04:57:58.586Z,93.70
2022-10-18T04:58:58.577Z,93.59
2022-10-18T04:59:58.573Z,92.18
2022-10-18T05:00:58.576Z,93.08
2022-10-18T05:01:58.730Z,92.68
2022-10-18T05:02:58.580Z,93.03
2022-10-18T05:03:58.541Z,94.24
2022-10-18T05:04:58.533Z,94.35
2022-10-18T05:06:02.997Z,94.45
2022-10-18T05:06:58.534Z,93.63
2022-10-18T05:07:58.511Z,93.23
2022-10-18T05:08:58.518Z,92.97
2022-10-18T05:09:58.507Z,93.07
2022-10-18T05:10:58.575Z,93.58
2022-10-18T05:11:58.535Z,93.62
2022-10-18T05:12:58.485Z,94.48
2022-10-18T05:13:58.470Z,95.09
2022-10-18T05:14:58.491Z,95.50
2022-10-18T05:15:58.458Z,95.79
2022-10-18T05:16:58.453Z,95.90
2022-10-18T05:17:58.882Z,96.36
2022-10-18T05:18:58.437Z,97.22
2022-10-18T05:19:58.456Z,97.27
2022-10-18T05:20:58.429Z,97.17
2022-10-18T05:21:58.412Z,96.97
2022-10-18T05:22:58.414Z,97.38
2022-10-18T05:23:58.718Z,96.66
2022-10-18T05:24:58.394Z,96.82
2022-10-18T05:25:58.405Z,97.23
2022-10-18T05:26:58.384Z,97.13
2022-10-18T05:28:00.926Z,96.62
2022-10-18T05:28:58.512Z,96.62
2022-10-18T05:30:01.390Z,97.23
2022-10-18T05:30:59.370Z,96.72
2022-10-18T05:31:58.344Z,96.01
2022-10-18T05:32:58.348Z,95.61
2022-10-18T05:33:58.332Z,95.40
2022-10-18T05:34:58.322Z,95.71
2022-10-18T05:35:58.336Z,95.55
2022-10-18T05:36:58.314Z,95.25
2022-10-18T05:37:58.297Z,95.86
2022-10-18T05:39:01.013Z,95.71
2022-10-18T05:39:59.318Z,95.95
2022-10-18T05:40:58.284Z,96.77
2022-10-18T05:41:58.271Z,96.72
2022-10-18T05:42:58.269Z,96.72
2022-10-18T05:43:58.718Z,95.91
2022-10-18T05:44:58.330Z,96.51
2022-10-18T05:45:58.250Z,96.72
2022-10-18T05:46:58.963Z,96.72
2022-10-18T05:47:58.241Z,97.02
2022-10-18T05:48:58.232Z,97.08
2022-10-18T05:49:58.230Z,96.62
2022-10-18T05:50:58.249Z,96.51
2022-10-18T05:51:58.209Z,96.11
2022-10-18T05:53:06.909Z,96.51
2022-10-18T05:53:59.616Z,96.72
2022-10-18T05:54:59.534Z,96.11
2022-10-18T05:55:58.172Z,96.11
2022-10-18T05:56:58.821Z,96.62
2022-10-18T05:57:58.167Z,96.22
2022-10-18T05:58:58.156Z,96.92
2022-10-18T05:59:59.273Z,96.51
2022-10-18T06:00:58.149Z,96.11
2022-10-18T06:01:58.134Z,97.02
2022-10-18T06:03:00.276Z,96.62
2022-10-18T06:03:58.120Z,96.51
2022-10-18T06:04:58.115Z,96.11
2022-10-18T06:05:58.128Z,96.11
2022-10-18T06:06:58.532Z,95.91
2022-10-18T06:07:58.098Z,95.20
2022-10-18T06:08:58.093Z,95.61
2022-10-18T06:09:58.075Z,95.50
2022-10-18T06:10:58.071Z,95.50
2022-10-18T06:11:59.144Z,95.55
2022-10-18T06:12:58.065Z,95.20
2022-10-18T06:13:58.047Z,95.61
2022-10-18T06:14:58.085Z,96.15
2022-10-18T06:15:59.226Z,95.75
2022-10-18T06:16:58.459Z,96.26
2022-10-18T06:17:58.025Z,95.86
2022-10-18T06:18:58.010Z,96.22
2022-10-18T06:19:58.009Z,95.95
2022-10-18T06:20:58.031Z,96.15
2022-10-18T06:21:58.007Z,95.75
2022-10-18T06:22:57.992Z,95.86
2022-10-18T06:23:57.974Z,95.86
2022-10-18T06:24:57.983Z,95.81
2022-10-18T06:25:57.967Z,95.95
2022-10-18T06:26:58.221Z,96.06
2022-10-18T06:27:59.262Z,96.06
2022-10-18T06:28:58.001Z,96.31
2022-10-18T06:29:57.981Z,96.56
2022-10-18T06:30:57.929Z,96.06
2022-10-18T06:31:57.938Z,96.11
2022-10-18T06:32:57.927Z,95.91
2022-10-18T06:33:57.910Z,96.46
2022-10-18T06:34:57.919Z,96.77
2022-10-18T06:35:57.897Z,96.36
2022-10-18T06:36:58.817Z,95.91
2022-10-18T06:37:57.933Z,96.15
2022-10-18T06:38:57.891Z,96.15
2022-10-18T06:39:57.861Z,95.95
2022-10-18T06:40:57.857Z,96.06
2022-10-18T06:41:57.853Z,95.95
2022-10-18T06:43:05.876Z,96.46
2022-10-18T06:43:59.303Z,96.26
2022-10-18T06:44:57.834Z,95.91
2022-10-18T06:45:57.850Z,96.51
2022-10-18T06:46:57.824Z,96.82
2022-10-18T06:47:57.832Z,96.82
2022-10-18T06:48:57.805Z,96.62
2022-10-18T06:49:57.792Z,96.51
2022-10-18T06:50:58.479Z,96.62
2022-10-18T06:51:57.772Z,96.62
2022-10-18T06:52:57.767Z,96.78
2022-10-18T06:54:16.342Z,96.67
2022-10-18T06:54:58.753Z,96.78
2022-10-18T06:55:58.188Z,95.86
2022-10-18T06:56:57.745Z,96.07
2022-10-18T06:57:57.726Z,95.97
2022-10-18T06:59:57.720Z,95.76
2022-10-18T07:00:57.715Z,95.72
2022-10-18T07:01:57.770Z,95.31
2022-10-18T07:02:57.699Z,95.15
2022-10-18T07:03:57.705Z,95.46
2022-10-18T07:04:57.687Z,95.36
2022-10-18T07:05:57.675Z,94.65
2022-10-18T07:06:57.681Z,95.36
2022-10-18T07:07:57.660Z,95.46
2022-10-18T07:08:57.660Z,95.26
2022-10-18T07:09:57.642Z,95.46
2022-10-18T07:10:57.643Z,95.51
2022-10-18T07:11:57.626Z,95.46
2022-10-18T07:13:13.722Z,95.42
2022-10-18T07:13:58.618Z,94.24
2022-10-18T07:14:57.628Z,94.81
2022-10-18T07:15:57.609Z,95.36
2022-10-18T07:16:57.593Z,95.82
2022-10-18T07:17:57.591Z,95.42
2022-10-18T07:18:57.588Z,94.35
2022-10-18T07:19:57.597Z,95.31
2022-10-18T07:20:57.572Z,95.92
2022-10-18T07:21:57.553Z,95.72
2022-10-18T07:22:57.554Z,95.62
2022-10-18T07:24:00.865Z,95.98
2022-10-18T07:24:57.537Z,95.27
2022-10-18T07:25:57.535Z,95.57
2022-10-18T07:26:57.549Z,95.47
2022-10-18T07:27:57.521Z,95.57
2022-10-18T07:28:57.569Z,95.87
2022-10-18T07:29:57.499Z,95.22
2022-10-18T07:31:01.296Z,95.43
2022-10-18T07:31:58.502Z,95.83
2022-10-18T07:32:57.488Z,95.32
2022-10-18T07:33:57.473Z,95.02
2022-10-18T07:34:57.538Z,95.12
2022-10-18T07:35:57.491Z,95.53
2022-10-18T07:36:57.462Z,95.73
2022-10-18T07:37:57.455Z,95.83
2022-10-18T07:38:57.458Z,95.32
2022-10-18T07:39:57.438Z,95.43
2022-10-18T07:40:57.433Z,95.12
2022-10-18T07:41:57.430Z,95.38
2022-10-18T07:42:57.422Z,95.02
2022-10-18T07:43:57.411Z,95.02
2022-10-18T07:44:57.397Z,94.92
2022-10-18T07:45:57.396Z,95.22
2022-10-18T07:46:57.409Z,95.28
2022-10-18T07:47:57.386Z,95.28
2022-10-18T07:48:57.374Z,95.28
2022-10-18T07:49:57.380Z,94.57
2022-10-18T07:50:57.358Z,94.57
2022-10-18T07:51:57.387Z,94.47
2022-10-18T07:52:57.366Z,94.27
2022-10-18T07:53:57.351Z,94.07
2022-10-18T07:54:57.345Z,94.57
2022-10-18T07:55:57.329Z,94.27
2022-10-18T07:56:57.347Z,94.17
2022-10-18T07:57:57.313Z,94.27
2022-10-18T07:58:57.311Z,94.07
2022-10-18T07:59:57.297Z,94.47
2022-10-18T08:00:57.295Z,94.27
2022-10-18T08:01:57.375Z,94.27
2022-10-18T08:02:57.298Z,94.27
2022-10-18T08:03:57.278Z,94.87
2022-10-18T08:04:57.265Z,94.47
2022-10-18T08:05:57.279Z,94.67
2022-10-18T08:06:57.257Z,93.56
2022-10-18T08:07:57.265Z,94.07
2022-10-18T08:08:57.227Z,94.27
2022-10-18T08:09:57.227Z,94.27
2022-10-18T08:10:57.230Z,93.46
2022-10-18T08:11:57.449Z,94.07
2022-10-18T08:12:57.211Z,94.17
2022-10-18T08:13:57.195Z,94.07
2022-10-18T08:14:57.197Z,94.17
2022-10-18T08:15:57.199Z,94.17
2022-10-18T08:16:57.179Z,94.12
2022-10-18T08:17:57.182Z,94.43
2022-10-18T08:18:57.188Z,94.12
2022-10-18T08:20:11.867Z,94.32
2022-10-18T08:20:58.675Z,94.02
2022-10-18T08:21:57.146Z,94.23
2022-10-18T08:23:00.164Z,94.02
2022-10-18T08:23:57.160Z,93.41
2022-10-18T08:24:57.128Z,93.77
2022-10-18T08:25:57.123Z,94.08
2022-10-18T08:26:57.113Z,93.98
2022-10-18T08:27:57.137Z,94.08
2022-10-18T08:29:10.662Z,93.88
2022-10-18T08:29:58.125Z,94.08
2022-10-18T08:30:57.085Z,93.98
2022-10-18T08:31:57.064Z,94.08
2022-10-18T08:32:57.068Z,93.88
2022-10-18T08:33:57.562Z,93.57
2022-10-18T08:34:57.054Z,93.57
2022-10-18T08:35:57.058Z,93.68
2022-10-18T08:36:57.035Z,93.88
2022-10-18T08:37:57.032Z,94.08
2022-10-18T08:38:57.019Z,94.08
2022-10-18T08:39:57.046Z,93.57
2022-10-18T08:40:57.010Z,93.37
2022-10-18T08:41:57.024Z,93.07
2022-10-18T08:42:56.995Z,93.41
2022-10-18T08:43:56.986Z,93.07
2022-10-18T08:44:56.976Z,93.41
2022-10-18T08:45:56.972Z,94.23
2022-10-18T08:46:57.057Z,93.92
2022-10-18T08:47:56.951Z,94.08
2022-10-18T08:48:56.957Z,93.72
2022-10-18T08:49:56.950Z,93.21
2022-10-18T08:50:57.122Z,93.82
2022-10-18T08:51:56.923Z,93.62
2022-10-18T08:52:56.927Z,93.92
2022-10-18T08:53:56.910Z,94.02
2022-10-18T08:54:56.915Z,94.02
2022-10-18T08:55:56.931Z,94.12
2022-10-18T08:56:57.321Z,94.73
2022-10-18T08:57:56.891Z,94.23
2022-10-18T08:58:56.876Z,94.23
2022-10-18T08:59:56.866Z,93.98
2022-10-18T09:00:57.154Z,93.92
2022-10-18T09:01:56.869Z,94.32
2022-10-18T09:02:56.911Z,94.23
2022-10-18T09:03:56.849Z,94.23
2022-10-18T09:04:56.837Z,93.77
2022-10-18T09:05:56.825Z,93.77
2022-10-18T09:06:56.842Z,94.18
2022-10-18T09:07:56.817Z,94.23
2022-10-18T09:08:56.804Z,93.32
2022-10-18T09:09:56.806Z,94.23
2022-10-18T09:11:59.513Z,93.82
2022-10-18T09:12:58.230Z,94.02
2022-10-18T09:13:56.771Z,94.12
2022-10-18T09:14:56.772Z,94.32
2022-10-18T09:15:56.764Z,93.41
2022-10-18T09:16:56.749Z,93.62
2022-10-18T09:17:56.758Z,93.77
2022-10-18T09:18:57.693Z,92.26
2022-10-18T09:19:56.759Z,93.17
2022-10-18T09:20:56.733Z,93.27
2022-10-18T09:21:56.720Z,93.33
2022-10-18T09:22:56.707Z,93.57
2022-10-18T09:23:56.695Z,93.33
2022-10-18T09:24:57.794Z,93.53
2022-10-18T09:25:56.686Z,93.13
2022-10-18T09:26:56.705Z,93.02
2022-10-18T09:27:56.701Z,93.53
2022-10-18T09:28:56.810Z,93.02
2022-10-18T09:29:56.663Z,92.88
2022-10-18T09:30:58.788Z,93.02
2022-10-18T09:31:56.647Z,92.47
2022-10-18T09:32:56.644Z,92.18
2022-10-18T09:33:56.630Z,91.77
2022-10-18T09:34:56.627Z,91.77
2022-10-18T09:35:56.618Z,91.17
2022-10-18T09:36:57.332Z,91.77
2022-10-18T09:37:56.604Z,91.67
2022-10-18T09:38:59.893Z,92.33
2022-10-18T09:39:56.585Z,91.02
2022-10-18T09:40:56.588Z,91.53
2022-10-18T09:41:56.567Z,92.19
2022-10-18T09:42:56.716Z,91.18
2022-10-18T09:43:56.585Z,90.98
2022-10-18T09:44:56.550Z,90.73
2022-10-18T09:45:56.548Z,91.04
2022-10-18T09:46:56.552Z,89.69
2022-10-18T09:47:56.547Z,89.79
2022-10-18T09:48:56.528Z,90.59
2022-10-18T09:49:56.514Z,90.05
2022-10-18T09:50:56.545Z,89.14
2022-10-18T09:51:56.505Z,89.04
2022-10-18T09:52:57.337Z,89.44
2022-10-18T09:53:56.486Z,88.54
2022-10-18T09:54:56.488Z,88.74
2022-10-18T09:55:56.478Z,87.63
2022-10-18T09:57:56.466Z,86.12
2022-10-18T09:58:56.882Z,88.13
2022-10-18T09:59:56.472Z,88.49
2022-10-18T10:00:56.447Z,88.79
2022-10-18T10:01:56.429Z,88.59
2022-10-18T10:02:56.432Z,88.15
2022-10-18T10:03:56.421Z,88.15
2022-10-18T10:04:56.452Z,86.85
2022-10-18T10:05:56.414Z,85.80
2022-10-18T10:06:56.402Z,86.40
2022-10-18T10:07:56.389Z,87.21
2022-10-18T10:08:56.390Z,86.36
2022-10-18T10:09:56.397Z,86.70
2022-10-18T10:10:56.388Z,83.79
2022-10-18T10:11:56.379Z,85.24
2022-10-18T10:12:56.567Z,85.14
2022-10-18T10:13:56.345Z,85.84
2022-10-18T10:14:56.350Z,86.85
2022-10-18T10:15:56.442Z,87.55
2022-10-18T10:16:56.335Z,85.74
2022-10-18T10:17:56.329Z,86.85
2022-10-18T10:18:57.556Z,86.34
2022-10-18T10:19:56.306Z,86.80
2022-10-18T10:20:56.307Z,85.80
2022-10-18T10:21:56.292Z,84.25
2022-10-18T10:22:56.296Z,85.56
2022-10-18T10:23:56.291Z,85.05
2022-10-18T10:24:56.299Z,84.55
2022-10-18T10:25:56.261Z,83.41
2022-10-18T10:26:56.266Z,83.31
2022-10-18T10:27:56.262Z,84.61
2022-10-18T10:28:56.365Z,84.77
2022-10-18T10:29:56.248Z,85.11
2022-10-18T10:30:56.420Z,82.67
2022-10-18T10:31:56.250Z,84.41
2022-10-18T10:33:03.261Z,82.97
2022-10-18T10:33:56.213Z,79.86
2022-10-18T10:34:56.210Z,83.57
2022-10-18T10:35:56.196Z,81.67
2022-10-18T10:36:56.352Z,83.27
2022-10-18T10:37:56.212Z,77.35
2022-10-18T10:38:56.178Z,79.99
2022-10-18T10:40:17.356Z,79.19
2022-10-18T10:40:57.195Z,82.81
2022-10-18T10:41:56.163Z,83.41
2022-10-18T10:43:04.272Z,85.11
2022-10-18T10:43:57.149Z,83.17
2022-10-18T10:44:56.326Z,83.47
2022-10-18T10:45:56.146Z,83.47
2022-10-18T10:46:56.182Z,83.73
2022-10-18T10:47:56.202Z,82.99
2022-10-18T10:49:15.455Z,82.69
2022-10-18T10:49:57.122Z,79.14
2022-10-18T10:50:56.104Z,82.85
2022-10-18T10:52:08.218Z,82.11
2022-10-18T10:52:57.111Z,80.11
2022-10-18T10:53:56.104Z,79.00
2022-10-18T10:55:05.812Z,80.11
2022-10-18T10:55:57.084Z,80.57
2022-10-18T10:56:56.074Z,81.17
2022-10-18T10:57:56.060Z,77.56
2022-10-18T10:58:56.139Z,79.06
2022-10-18T10:59:56.045Z,81.37
2022-10-18T11:00:56.035Z,78.83
2022-10-18T11:01:56.040Z,75.93
2022-10-18T11:03:05.313Z,75.69
2022-10-18T11:03:57.096Z,75.52
2022-10-18T11:04:56.159Z,76.73
2022-10-18T11:05:56.007Z,76.06
2022-10-18T11:06:55.998Z,80.97
2022-10-18T11:07:56.018Z,81.97
2022-10-18T11:08:55.982Z,80.57
2022-10-18T11:09:55.997Z,78.17
2022-10-18T11:10:56.024Z,77.67
2022-10-18T11:11:55.955Z,78.47
2022-10-18T11:12:55.957Z,76.03
2022-10-18T11:14:07.390Z,73.86
2022-10-18T11:14:56.949Z,75.68
2022-10-18T11:15:55.932Z,75.09
2022-10-18T11:16:55.909Z,75.12
2022-10-18T11:17:55.947Z,74.66
2022-10-18T11:18:55.913Z,73.49
2022-10-18T11:19:55.953Z,74.95
2022-10-18T11:20:55.942Z,75.35
2022-10-18T11:21:56.611Z,73.68
2022-10-18T11:22:55.909Z,71.15
2022-10-18T11:23:55.866Z,71.45
2022-10-18T11:24:55.874Z,73.25
2022-10-18T11:25:55.883Z,73.91
2022-10-18T11:26:55.854Z,70.65
2022-10-18T11:27:55.849Z,67.63
2022-10-18T11:28:55.927Z,66.31
2022-10-18T11:29:55.828Z,68.86
2022-10-18T11:30:55.855Z,67.60
2022-10-18T11:31:55.817Z,68.50
2022-10-18T11:32:55.828Z,68.37
2022-10-18T11:34:08.753Z,68.79
2022-10-18T11:34:56.836Z,68.70
2022-10-18T11:35:58.190Z,70.69
2022-10-18T11:37:22.583Z,74.56
2022-10-18T11:37:56.770Z,73.76
2022-10-18T11:38:55.759Z,75.20
2022-10-18T11:39:55.788Z,75.23
2022-10-18T11:40:55.750Z,75.27
2022-10-18T11:41:55.763Z,75.97
2022-10-18T11:42:56.054Z,77.41
2022-10-18T11:44:03.895Z,77.21
2022-10-18T11:44:57.012Z,78.92
2022-10-18T11:45:55.716Z,77.67
2022-10-18T11:46:55.711Z,78.34
2022-10-18T11:47:56.031Z,76.30
2022-10-18T11:48:55.696Z,75.40
2022-10-18T11:49:55.741Z,73.99
2022-10-18T11:50:55.743Z,70.99
2022-10-18T11:52:07.943Z,70.79
2022-10-18T11:52:56.694Z,69.56
2022-10-18T11:53:56.128Z,70.49
2022-10-18T11:54:55.664Z,69.23
2022-10-18T11:55:55.644Z,69.29
2022-10-18T11:56:55.645Z,70.89
2022-10-18T11:57:55.649Z,70.39
2022-10-18T11:58:55.647Z,67.24
2022-10-18T11:59:55.641Z,64.69
2022-10-18T12:00:55.666Z,65.15
2022-10-18T12:01:55.610Z,63.49
2022-10-18T12:02:55.724Z,66.87
2022-10-18T12:03:55.626Z,62.93
2022-10-18T12:05:18.879Z,63.49
2022-10-18T12:05:56.594Z,60.49
2022-10-18T12:06:55.576Z,61.55
2022-10-18T12:07:55.580Z,60.28
2022-10-18T12:08:55.585Z,59.59
2022-10-18T12:09:55.597Z,59.99
2022-10-18T12:11:06.893Z,59.32
2022-10-18T12:11:56.553Z,62.04
2022-10-18T12:12:55.547Z,62.53
2022-10-18T12:13:55.561Z,62.46
2022-10-18T12:14:55.515Z,60.97
2022-10-18T12:15:55.515Z,61.64
2022-10-18T12:17:13.502Z,62.04
2022-10-18T12:17:56.830Z,61.04
2022-10-18T12:18:55.551Z,60.71
2022-10-18T12:19:55.478Z,61.98
2022-10-18T12:20:55.467Z,61.11
2022-10-18T12:21:55.494Z,61.67
2022-10-18T12:22:55.455Z,61.99
2022-10-18T12:23:55.479Z,62.95
2022-10-18T12:24:55.446Z,64.87
2022-10-18T12:25:55.445Z,64.74
2022-10-18T12:26:55.438Z,64.27
2022-10-18T12:27:55.485Z,65.70
2022-10-18T12:28:55.449Z,65.50
2022-10-18T12:29:55.488Z,66.53
2022-10-18T12:30:55.481Z,67.07
2022-10-18T12:31:55.430Z,65.34
2022-10-18T12:33:03.460Z,65.47
2022-10-18T12:33:56.410Z,66.63
2022-10-18T12:34:55.389Z,65.97
2022-10-18T12:35:55.394Z,65.83
2022-10-18T12:36:55.466Z,64.74
2022-10-18T12:37:55.339Z,65.11
2022-10-18T12:38:55.374Z,63.75
2022-10-18T12:40:13.219Z,64.48
2022-10-18T12:40:56.317Z,62.23
2022-10-18T12:41:55.319Z,59.62
2022-10-18T12:42:55.525Z,59.15
2022-10-18T12:43:55.320Z,60.73
2022-10-18T12:44:55.319Z,62.13
2022-10-18T12:45:55.298Z,63.25
2022-10-18T12:46:55.288Z,62.59
2022-10-18T12:47:55.284Z,64.34
2022-10-18T12:48:55.276Z,64.97
2022-10-18T12:49:55.289Z,66.39
2022-10-18T12:50:55.273Z,66.43
2022-10-18T12:51:55.674Z,67.16
2022-10-18T12:52:55.267Z,66.86
2022-10-18T12:53:55.245Z,68.56
2022-10-18T12:54:55.230Z,68.99